Weather at Brani Naval Base Heliport

Public forecast

Using degrees Celsius for public forecast. Weather courtesy of forecast.io.

Closest aviation weather report (METAR) to Brani Naval Base Heliport

Closest report is Paya Lebar Air Base, 7.7 nm (14.3 km) NE.

2024/05/19 07:00 (retrieved 37 minutes ago)

WSAP 190700Z 13009KT 9999 VCSH FEW017TCU BKN300 31/24 Q1006 RETS

Closest aviation forecast (TAF) to Brani Naval Base Heliport

Closest forecast is Paya Lebar Air Base, 7.7 nm (14.3 km) NE.

2024/05/19 06:09 (retrieved 1 hour ago)

TAF WSAP 190500Z 1906/2012 16010KT 9999 FEW015 SCT020 TEMPO 1906/1908 3000 TSRA FEW012CB BKN015